createdAt,value
2023-03-04T00:00:07.739Z,46.70
2023-03-04T00:02:40.003Z,46.64
2023-03-04T00:05:10.377Z,46.38
2023-03-04T00:07:37.129Z,46.21
2023-03-04T00:10:05.048Z,46.33
2023-03-04T00:12:34.378Z,46.30
2023-03-04T00:15:03.646Z,46.21
2023-03-04T00:17:32.622Z,46.43
2023-03-04T00:19:59.373Z,46.43
2023-03-04T00:22:29.539Z,46.38
2023-03-04T00:24:56.353Z,46.31
2023-03-04T00:27:23.454Z,46.08
2023-03-04T00:29:52.404Z,45.66
2023-03-04T00:32:32.369Z,45.93
2023-03-04T00:35:01.605Z,46.12
2023-03-04T00:37:32.969Z,45.96
2023-03-04T00:40:01.823Z,46.39
2023-03-04T00:42:28.560Z,45.84
2023-03-04T00:44:57.809Z,46.04
2023-03-04T00:47:24.555Z,46.09
2023-03-04T00:49:51.413Z,46.34
2023-03-04T00:52:22.976Z,46.29
2023-03-04T00:54:49.758Z,46.33
2023-03-04T00:57:16.541Z,46.35
2023-03-04T00:59:44.065Z,46.08
2023-03-04T01:02:11.202Z,46.07
2023-03-04T01:04:42.008Z,46.09
2023-03-04T01:07:16.940Z,45.63
2023-03-04T01:09:43.901Z,46.09
2023-03-04T01:12:15.384Z,45.64
2023-03-04T01:14:43.622Z,45.77
2023-03-04T01:17:15.041Z,45.82
2023-03-04T01:19:44.270Z,45.86
2023-03-04T01:22:12.455Z,45.75
2023-03-04T01:24:39.426Z,45.77
2023-03-04T01:27:15.362Z,45.76
2023-03-04T01:29:46.120Z,45.62
2023-03-04T01:32:29.212Z,45.88
2023-03-04T01:34:58.686Z,45.91
2023-03-04T01:37:30.253Z,45.59
2023-03-04T01:40:02.558Z,45.76
2023-03-04T01:42:38.492Z,45.04
2023-03-04T01:45:07.041Z,45.94
2023-03-04T01:47:36.100Z,45.68
2023-03-04T01:50:05.919Z,45.66
2023-03-04T01:52:35.497Z,45.24
2023-03-04T01:55:14.532Z,45.34
2023-03-04T01:57:46.739Z,45.18
2023-03-04T02:00:33.920Z,45.32
2023-03-04T02:03:08.231Z,45.29
2023-03-04T02:05:41.578Z,44.59
2023-03-04T02:08:11.849Z,44.72
2023-03-04T02:10:39.622Z,44.53
2023-03-04T02:13:06.646Z,44.27
2023-03-04T02:15:39.021Z,44.53
2023-03-04T02:18:17.130Z,44.33
2023-03-04T02:21:03.165Z,44.42
2023-03-04T02:23:44.553Z,44.59
2023-03-04T02:26:21.699Z,44.63
2023-03-04T02:28:52.716Z,44.24
2023-03-04T02:31:32.943Z,44.06
2023-03-04T02:34:05.579Z,44.28
2023-03-04T02:36:33.185Z,44.28
2023-03-04T02:39:12.706Z,43.91
2023-03-04T02:41:45.138Z,44.37
2023-03-04T02:44:23.111Z,44.32
2023-03-04T02:46:52.769Z,44.59
2023-03-04T02:49:22.999Z,44.86
2023-03-04T02:51:54.695Z,44.91
2023-03-04T02:54:23.526Z,45.02
2023-03-04T02:56:58.585Z,45.39
2023-03-04T02:59:27.875Z,45.68
2023-03-04T03:01:54.818Z,45.40
2023-03-04T03:04:29.774Z,45.90
2023-03-04T03:06:59.346Z,46.18
2023-03-04T03:09:26.381Z,45.67
2023-03-04T03:11:58.921Z,45.45
2023-03-04T03:14:28.843Z,45.33
2023-03-04T03:17:00.851Z,45.07
2023-03-04T03:19:31.502Z,45.04
2023-03-04T03:22:02.901Z,45.62
2023-03-04T03:24:29.777Z,45.34
2023-03-04T03:26:56.590Z,45.78
2023-03-04T03:29:24.060Z,45.46
2023-03-04T03:31:50.992Z,45.70
2023-03-04T03:34:23.449Z,45.55
2023-03-04T03:36:52.348Z,45.31
2023-03-04T03:39:22.272Z,45.54
2023-03-04T03:41:49.051Z,45.82
2023-03-04T03:44:15.814Z,45.65
2023-03-04T03:46:42.559Z,46.12
2023-03-04T03:49:09.395Z,46.14
2023-03-04T03:51:36.087Z,46.21
2023-03-04T03:54:02.910Z,46.32
2023-03-04T03:56:29.830Z,46.88
2023-03-04T03:58:57.523Z,46.95
2023-03-04T04:01:26.813Z,47.08
2023-03-04T04:03:55.831Z,47.61
2023-03-04T04:06:23.126Z,47.07
2023-03-04T04:08:49.821Z,47.40
2023-03-04T04:11:17.051Z,47.28
2023-03-04T04:13:43.931Z,47.15
2023-03-04T04:16:13.153Z,47.52
2023-03-04T04:18:42.179Z,46.96
2023-03-04T04:21:09.659Z,46.91
2023-03-04T04:23:36.414Z,47.13
2023-03-04T04:26:03.345Z,47.13
2023-03-04T04:28:34.069Z,47.59
2023-03-04T04:31:03.132Z,47.55
2023-03-04T04:33:30.009Z,48.04
2023-03-04T04:35:56.804Z,48.90
2023-03-04T04:38:24.764Z,49.00
2023-03-04T04:40:54.008Z,49.07
2023-03-04T04:43:20.841Z,49.36
2023-03-04T04:45:49.877Z,49.62
2023-03-04T04:48:18.808Z,50.40
2023-03-04T04:50:45.652Z,49.92
2023-03-04T04:53:14.404Z,50.54
2023-03-04T04:55:41.276Z,51.17
2023-03-04T04:58:08.082Z,50.47
2023-03-04T05:00:39.796Z,50.75
2023-03-04T05:03:09.031Z,51.17
2023-03-04T05:05:38.118Z,50.87
2023-03-04T05:08:05.370Z,51.87
2023-03-04T05:10:32.121Z,50.82
2023-03-04T05:13:01.086Z,50.71
2023-03-04T05:15:27.926Z,51.56
2023-03-04T05:17:59.555Z,51.00
2023-03-04T05:20:28.601Z,52.31
2023-03-04T05:22:57.703Z,51.28
2023-03-04T05:25:27.425Z,52.10
2023-03-04T05:27:54.211Z,51.68
2023-03-04T05:30:21.249Z,51.99
2023-03-04T05:32:50.150Z,52.01
2023-03-04T05:35:17.074Z,52.73
2023-03-04T05:37:46.079Z,52.51
2023-03-04T05:40:13.743Z,52.45
2023-03-04T05:42:40.521Z,51.89
2023-03-04T05:45:10.260Z,51.73
2023-03-04T05:47:37.095Z,51.92
2023-03-04T05:50:06.383Z,52.39
2023-03-04T05:52:33.435Z,52.26
2023-03-04T05:55:00.230Z,52.75
2023-03-04T05:57:32.063Z,52.42
2023-03-04T06:00:01.472Z,52.14
2023-03-04T06:02:31.115Z,52.37
2023-03-04T06:05:00.169Z,52.47
2023-03-04T06:07:29.254Z,52.23
2023-03-04T06:09:58.415Z,52.24
2023-03-04T06:12:25.733Z,52.69
2023-03-04T06:14:54.865Z,52.39
2023-03-04T06:17:22.055Z,51.81
2023-03-04T06:19:51.616Z,51.54
2023-03-04T06:22:18.306Z,51.59
2023-03-04T06:24:45.132Z,51.44
2023-03-04T06:27:11.955Z,51.25
2023-03-04T06:29:43.884Z,51.04
2023-03-04T06:32:13.095Z,50.92
2023-03-04T06:34:42.477Z,50.90
2023-03-04T06:37:09.233Z,50.70
2023-03-04T06:39:36.643Z,50.88
2023-03-04T06:42:05.833Z,50.71
2023-03-04T06:44:38.161Z,50.93
2023-03-04T06:47:05.098Z,50.16
2023-03-04T06:49:31.833Z,49.79
2023-03-04T06:51:58.821Z,50.15
2023-03-04T06:54:30.877Z,50.29
2023-03-04T06:56:59.979Z,50.01
2023-03-04T06:59:29.035Z,49.96
2023-03-04T07:01:55.828Z,49.99
2023-03-04T07:04:27.477Z,50.45
2023-03-04T07:06:57.013Z,50.58
2023-03-04T07:09:26.768Z,50.89
2023-03-04T07:11:53.550Z,51.14
2023-03-04T07:14:24.207Z,51.34
2023-03-04T07:16:51.232Z,51.46
2023-03-04T07:19:20.374Z,51.69
2023-03-04T07:21:47.392Z,51.53
2023-03-04T07:24:14.151Z,51.83
2023-03-04T07:26:41.012Z,51.87
2023-03-04T07:29:12.976Z,51.55
2023-03-04T07:31:39.895Z,50.92
2023-03-04T07:34:15.585Z,50.62
2023-03-04T07:36:45.727Z,50.42
2023-03-04T07:39:15.848Z,49.52
2023-03-04T07:41:43.011Z,49.46
2023-03-04T07:44:13.630Z,48.99
2023-03-04T07:46:42.802Z,48.58
2023-03-04T07:49:12.365Z,48.39
2023-03-04T07:51:39.434Z,48.40
2023-03-04T07:54:06.234Z,47.14
2023-03-04T07:56:34.920Z,47.01
2023-03-04T07:59:02.758Z,46.24
2023-03-04T08:01:34.220Z,44.71
2023-03-04T08:04:02.162Z,44.87
2023-03-04T08:06:32.043Z,45.02
2023-03-04T08:09:06.718Z,44.50
2023-03-04T08:11:35.247Z,44.77
2023-03-04T08:14:06.401Z,45.12
2023-03-04T08:16:35.814Z,45.22
2023-03-04T08:19:06.318Z,44.19
2023-03-04T08:21:33.488Z,44.35
2023-03-04T08:24:02.797Z,44.36
2023-03-04T08:26:34.282Z,44.48
2023-03-04T08:29:05.125Z,44.07
2023-03-04T08:31:32.452Z,43.81
2023-03-04T08:34:02.911Z,43.75
2023-03-04T08:36:32.415Z,43.29
2023-03-04T08:39:01.523Z,44.63
2023-03-04T08:41:29.453Z,43.51
2023-03-04T08:43:56.398Z,42.09
2023-03-04T08:46:23.263Z,42.71
2023-03-04T08:48:54.523Z,42.61
2023-03-04T08:51:21.445Z,41.98
2023-03-04T08:53:50.830Z,42.32
2023-03-04T08:56:17.472Z,41.63
2023-03-04T08:58:44.514Z,41.88
2023-03-04T09:01:15.603Z,42.48
2023-03-04T09:03:43.154Z,40.75
2023-03-04T09:06:12.871Z,40.97
2023-03-04T09:08:39.679Z,41.27
2023-03-04T09:11:07.072Z,40.83
2023-03-04T09:13:34.094Z,40.09
2023-03-04T09:16:01.337Z,39.92
2023-03-04T09:18:31.353Z,41.37
2023-03-04T09:21:01.119Z,40.32
2023-03-04T09:23:28.660Z,39.75
2023-03-04T09:25:55.482Z,40.91
2023-03-04T09:28:22.432Z,40.25
2023-03-04T09:30:49.253Z,40.38
2023-03-04T09:33:16.329Z,40.59
2023-03-04T09:35:46.161Z,40.69
2023-03-04T09:38:13.578Z,39.52
2023-03-04T09:40:46.377Z,39.70
2023-03-04T09:43:23.301Z,39.81
2023-03-04T09:45:54.140Z,40.27
2023-03-04T09:48:25.239Z,39.30
2023-03-04T09:51:11.104Z,38.23
2023-03-04T09:54:18.765Z,38.38
2023-03-04T09:56:54.181Z,37.96
2023-03-04T09:59:23.938Z,38.44
2023-03-04T10:02:10.684Z,37.35
2023-03-04T10:04:59.690Z,38.67
2023-03-04T10:07:31.935Z,37.93
2023-03-04T10:10:14.858Z,39.28
2023-03-04T10:12:44.300Z,39.37
2023-03-04T10:15:19.528Z,39.35
2023-03-04T10:17:56.621Z,39.66
2023-03-04T10:20:58.696Z,37.32
2023-03-04T10:23:31.617Z,38.55
2023-03-04T10:26:03.242Z,38.62
2023-03-04T10:28:33.049Z,38.20
2023-03-04T10:31:02.094Z,38.09
2023-03-04T10:33:35.216Z,38.06
2023-03-04T10:36:04.135Z,37.77
2023-03-04T10:38:43.671Z,36.73
2023-03-04T10:41:14.711Z,36.90
2023-03-04T10:43:50.188Z,37.09
2023-03-04T10:46:17.841Z,37.32
2023-03-04T10:48:45.639Z,37.42
2023-03-04T10:51:19.774Z,36.90
2023-03-04T10:53:48.002Z,36.31
2023-03-04T10:56:53.102Z,36.66
2023-03-04T10:59:32.229Z,35.37
2023-03-04T11:02:15.507Z,35.92
2023-03-04T11:04:50.408Z,35.31
2023-03-04T11:07:17.250Z,35.38
2023-03-04T11:09:47.247Z,33.33
2023-03-04T11:12:19.698Z,34.00
2023-03-04T11:14:51.211Z,33.83
2023-03-04T11:17:17.881Z,34.41
2023-03-04T11:19:51.960Z,35.81
2023-03-04T11:22:23.897Z,33.02
2023-03-04T11:25:14.905Z,33.08
2023-03-04T11:27:49.343Z,31.93
2023-03-04T11:30:26.283Z,32.00
2023-03-04T11:32:57.097Z,31.59
2023-03-04T11:35:39.378Z,32.10
2023-03-04T11:38:24.457Z,33.19
2023-03-04T11:40:58.138Z,32.46
2023-03-04T11:43:45.805Z,31.25
2023-03-04T11:46:18.839Z,31.37
2023-03-04T11:49:09.955Z,31.82
2023-03-04T11:51:48.620Z,32.20
2023-03-04T11:54:34.730Z,32.99
2023-03-04T11:57:55.094Z,32.87
2023-03-04T12:00:53.355Z,32.70
2023-03-04T12:03:31.368Z,33.33
2023-03-04T12:06:27.247Z,33.21
2023-03-04T12:09:05.725Z,33.25
2023-03-04T12:11:59.777Z,33.10
2023-03-04T12:14:39.257Z,31.25
2023-03-04T12:17:09.669Z,31.90
2023-03-04T12:19:56.775Z,31.09
2023-03-04T12:22:54.981Z,31.15
2023-03-04T12:25:40.456Z,31.59
2023-03-04T12:28:23.340Z,32.37
2023-03-04T12:31:08.051Z,32.33
2023-03-04T12:33:53.413Z,32.18
2023-03-04T12:37:01.918Z,32.31
2023-03-04T12:39:43.528Z,31.96
2023-03-04T12:42:29.306Z,31.71
2023-03-04T12:45:01.660Z,31.38
2023-03-04T12:47:37.100Z,30.85
2023-03-04T12:50:28.583Z,27.61
2023-03-04T12:53:17.485Z,27.05
2023-03-04T12:55:46.184Z,27.92
2023-03-04T12:58:24.288Z,27.87
2023-03-04T13:01:00.406Z,27.13
2023-03-04T13:03:42.781Z,26.07
2023-03-04T13:06:37.579Z,25.99
2023-03-04T13:09:31.109Z,22.55
2023-03-04T13:12:16.191Z,22.06
2023-03-04T13:15:09.049Z,22.78
2023-03-04T13:17:43.410Z,22.43
2023-03-04T13:20:32.629Z,24.27
2023-03-04T13:23:09.466Z,21.94
2023-03-04T13:25:39.223Z,22.91
2023-03-04T13:28:11.514Z,23.14
2023-03-04T13:30:38.316Z,24.35
2023-03-04T13:33:11.259Z,21.52
2023-03-04T13:35:49.333Z,20.60
2023-03-04T13:38:28.461Z,20.30
2023-03-04T13:41:14.053Z,21.25
2023-03-04T13:44:04.390Z,22.96
2023-03-04T13:46:43.005Z,23.57
2023-03-04T13:49:24.649Z,24.00
2023-03-04T13:51:51.784Z,23.47
2023-03-04T13:54:32.813Z,23.23
2023-03-04T13:57:21.018Z,23.70
2023-03-04T13:59:55.037Z,23.82
2023-03-04T14:02:25.956Z,25.12
2023-03-04T14:05:02.630Z,23.66
2023-03-04T14:07:47.473Z,22.92
2023-03-04T14:10:16.385Z,22.85
2023-03-04T14:12:50.390Z,23.36
2023-03-04T14:15:26.221Z,23.61
2023-03-04T14:17:55.294Z,23.76
2023-03-04T14:20:30.176Z,23.41
2023-03-04T14:22:59.194Z,23.56
2023-03-04T14:25:31.048Z,24.13
2023-03-04T14:28:12.707Z,23.64
2023-03-04T14:30:43.737Z,23.41
2023-03-04T14:33:23.681Z,22.99
2023-03-04T14:35:56.171Z,21.88
2023-03-04T14:38:35.007Z,20.85
2023-03-04T14:41:19.298Z,20.07
2023-03-04T14:44:09.056Z,18.35
2023-03-04T14:46:40.503Z,19.42
2023-03-04T14:49:11.947Z,18.33
2023-03-04T14:51:54.190Z,18.38
2023-03-04T14:54:46.413Z,17.43
2023-03-04T14:57:21.068Z,18.92
2023-03-04T14:59:51.488Z,18.36
2023-03-04T15:02:21.368Z,18.40
2023-03-04T15:04:51.340Z,18.52
2023-03-04T15:07:29.930Z,18.27
2023-03-04T15:09:56.701Z,20.21
2023-03-04T15:12:27.406Z,20.17
2023-03-04T15:15:25.213Z,20.35
2023-03-04T15:18:03.325Z,19.88
2023-03-04T15:20:33.288Z,20.18
2023-03-04T15:23:07.165Z,19.33
2023-03-04T15:25:36.645Z,19.50
2023-03-04T15:28:05.296Z,20.47
2023-03-04T15:30:37.940Z,20.77
2023-03-04T15:33:09.090Z,20.72
2023-03-04T15:35:38.584Z,21.32
2023-03-04T15:38:11.575Z,22.93
2023-03-04T15:40:43.311Z,22.97
2023-03-04T15:43:19.246Z,23.14
2023-03-04T15:45:47.464Z,24.09
2023-03-04T15:48:15.780Z,23.49
2023-03-04T15:50:47.997Z,24.27
2023-03-04T15:53:24.425Z,24.47
2023-03-04T15:55:53.845Z,24.98
2023-03-04T15:58:20.713Z,25.27
2023-03-04T16:00:47.722Z,25.09
2023-03-04T16:03:16.989Z,24.56
2023-03-04T16:05:47.443Z,24.60
2023-03-04T16:08:17.206Z,24.83
2023-03-04T16:10:49.996Z,25.35
2023-03-04T16:13:19.672Z,25.69
2023-03-04T16:15:46.993Z,26.53
2023-03-04T16:18:17.250Z,26.92
2023-03-04T16:20:47.025Z,27.36
2023-03-04T16:23:17.070Z,28.64
2023-03-04T16:25:45.647Z,29.20
2023-03-04T16:28:15.365Z,30.43
2023-03-04T16:30:44.577Z,31.19
2023-03-04T16:33:11.574Z,31.37
2023-03-04T16:35:41.315Z,30.90
2023-03-04T16:38:19.705Z,32.20
2023-03-04T16:40:49.655Z,32.28
2023-03-04T16:43:18.965Z,32.76
2023-03-04T16:45:46.185Z,32.75
2023-03-04T16:48:12.981Z,32.87
2023-03-04T16:50:42.803Z,33.75
2023-03-04T16:53:32.738Z,33.36
2023-03-04T16:56:04.430Z,32.61
2023-03-04T16:58:33.931Z,33.33
2023-03-04T17:01:02.901Z,33.61
2023-03-04T17:03:33.949Z,33.37
2023-03-04T17:06:03.269Z,33.54
2023-03-04T17:08:32.268Z,32.73
2023-03-04T17:11:03.709Z,33.05
2023-03-04T17:13:30.638Z,32.96
2023-03-04T17:16:03.838Z,33.31
2023-03-04T17:18:33.223Z,33.67
2023-03-04T17:21:06.065Z,34.65
2023-03-04T17:23:33.357Z,33.88
2023-03-04T17:26:00.077Z,34.09
2023-03-04T17:28:29.514Z,34.69
2023-03-04T17:30:56.138Z,35.42
2023-03-04T17:33:23.498Z,35.55
2023-03-04T17:35:50.289Z,35.54
2023-03-04T17:38:17.554Z,35.71
2023-03-04T17:40:47.543Z,36.05
2023-03-04T17:43:14.592Z,35.92
2023-03-04T17:45:42.381Z,36.01
2023-03-04T17:48:15.424Z,36.55
2023-03-04T17:50:53.976Z,36.83
2023-03-04T17:53:23.840Z,37.17
2023-03-04T17:56:00.237Z,37.42
2023-03-04T17:58:31.444Z,36.52
2023-03-04T18:01:15.334Z,36.41
2023-03-04T18:03:42.350Z,38.31
2023-03-04T18:06:09.257Z,38.19
2023-03-04T18:08:39.040Z,38.11
2023-03-04T18:11:08.083Z,38.00
2023-03-04T18:13:36.886Z,38.12
2023-03-04T18:16:04.465Z,38.29
2023-03-04T18:18:33.436Z,39.92
2023-03-04T18:21:00.833Z,40.84
2023-03-04T18:23:28.736Z,40.87
2023-03-04T18:25:55.697Z,40.38
2023-03-04T18:28:23.050Z,39.99
2023-03-04T18:30:55.684Z,40.84
2023-03-04T18:33:27.939Z,41.60
2023-03-04T18:36:02.631Z,41.32
2023-03-04T18:38:32.121Z,41.48
2023-03-04T18:41:04.528Z,42.24
2023-03-04T18:43:31.705Z,41.53
2023-03-04T18:46:26.072Z,41.37
2023-03-04T18:48:54.579Z,42.51
2023-03-04T18:51:23.690Z,42.79
2023-03-04T18:53:52.730Z,41.97
2023-03-04T18:56:49.094Z,41.84
2023-03-04T18:59:31.412Z,43.45
2023-03-04T19:02:02.014Z,42.94
2023-03-04T19:04:34.359Z,43.93
2023-03-04T19:07:05.014Z,44.28
2023-03-04T19:09:34.071Z,45.92
2023-03-04T19:12:02.117Z,45.21
2023-03-04T19:14:28.939Z,44.31
2023-03-04T19:16:55.687Z,45.22
2023-03-04T19:19:25.235Z,45.11
2023-03-04T19:21:53.840Z,45.74
2023-03-04T19:24:20.775Z,45.43
2023-03-04T19:26:47.639Z,44.97
2023-03-04T19:29:15.197Z,45.21
2023-03-04T19:31:46.708Z,46.80
2023-03-04T19:34:13.522Z,47.01
2023-03-04T19:36:43.023Z,46.16
2023-03-04T19:39:09.844Z,46.42
2023-03-04T19:41:37.093Z,46.43
2023-03-04T19:44:03.857Z,47.48
2023-03-04T19:46:31.485Z,46.92
2023-03-04T19:49:01.694Z,47.19
2023-03-04T19:51:32.917Z,46.37
2023-03-04T19:54:00.418Z,47.61
2023-03-04T19:56:30.179Z,46.98
2023-03-04T19:58:57.608Z,46.23
2023-03-04T20:01:29.786Z,48.03
2023-03-04T20:03:59.591Z,48.65
2023-03-04T20:06:27.165Z,47.06
2023-03-04T20:08:57.327Z,48.42
2023-03-04T20:11:26.566Z,48.33
2023-03-04T20:13:54.401Z,48.10
2023-03-04T20:16:21.420Z,48.55
2023-03-04T20:18:48.396Z,48.10
2023-03-04T20:21:15.223Z,48.00
2023-03-04T20:23:42.184Z,48.18
2023-03-04T20:26:09.027Z,48.68
2023-03-04T20:28:50.925Z,48.12
2023-03-04T20:31:24.949Z,49.15
2023-03-04T20:33:53.111Z,48.12
2023-03-04T20:36:22.054Z,48.13
2023-03-04T20:39:00.661Z,48.99
2023-03-04T20:41:29.111Z,48.78
2023-03-04T20:43:56.023Z,49.99
2023-03-04T20:46:36.905Z,49.96
2023-03-04T20:49:06.759Z,48.83
2023-03-04T20:51:34.236Z,48.94
2023-03-04T20:54:04.160Z,50.62
2023-03-04T20:56:31.576Z,49.13
2023-03-04T20:59:00.940Z,49.62
2023-03-04T21:01:28.322Z,49.94
2023-03-04T21:03:55.168Z,49.87
2023-03-04T21:06:25.260Z,50.04
2023-03-04T21:08:52.243Z,50.21
2023-03-04T21:11:23.820Z,49.59
2023-03-04T21:13:58.594Z,50.60
2023-03-04T21:16:31.826Z,50.44
2023-03-04T21:18:58.560Z,50.63
2023-03-04T21:21:27.737Z,51.45
2023-03-04T21:23:56.086Z,51.02
2023-03-04T21:26:24.026Z,51.15
2023-03-04T21:28:52.655Z,50.88
2023-03-04T21:31:22.874Z,50.72
2023-03-04T21:33:55.963Z,51.16
2023-03-04T21:36:23.331Z,51.52
2023-03-04T21:38:53.534Z,51.32
2023-03-04T21:41:23.295Z,51.50
2023-03-04T21:43:52.626Z,51.50
2023-03-04T21:46:23.374Z,51.94
2023-03-04T21:48:50.418Z,51.96
2023-03-04T21:51:17.297Z,52.15
2023-03-04T21:53:44.187Z,52.40
2023-03-04T21:56:12.593Z,52.98
2023-03-04T21:58:42.518Z,51.73
2023-03-04T22:01:11.709Z,51.53
2023-03-04T22:03:38.786Z,52.49
2023-03-04T22:06:10.008Z,51.94
2023-03-04T22:08:38.043Z,51.65
2023-03-04T22:11:10.471Z,52.33
2023-03-04T22:13:37.965Z,52.60
2023-03-04T22:16:05.695Z,52.93
2023-03-04T22:18:32.632Z,53.27
2023-03-04T22:21:01.621Z,53.37
2023-03-04T22:23:29.077Z,54.16
2023-03-04T22:26:02.590Z,54.87
2023-03-04T22:28:32.222Z,54.45
2023-03-04T22:30:58.903Z,54.50
2023-03-04T22:33:25.921Z,54.80
2023-03-04T22:35:53.026Z,53.95
2023-03-04T22:38:22.474Z,54.70
2023-03-04T22:40:52.186Z,54.47
2023-03-04T22:43:21.740Z,54.97
2023-03-04T22:45:49.021Z,55.08
2023-03-04T22:48:19.154Z,55.52
2023-03-04T22:50:46.164Z,55.77
2023-03-04T22:53:15.241Z,55.62
2023-03-04T22:55:41.984Z,56.51
2023-03-04T22:58:08.669Z,56.66
2023-03-04T23:00:38.076Z,56.60
2023-03-04T23:03:06.590Z,56.91
2023-03-04T23:05:33.430Z,57.37
2023-03-04T23:08:00.565Z,57.44
2023-03-04T23:10:29.598Z,57.68
2023-03-04T23:13:04.689Z,57.43
2023-03-04T23:15:31.448Z,57.97
2023-03-04T23:17:58.176Z,57.14
2023-03-04T23:20:25.190Z,57.51
2023-03-04T23:22:51.954Z,57.67
2023-03-04T23:25:18.741Z,58.02
2023-03-04T23:27:45.526Z,58.15
2023-03-04T23:30:17.763Z,58.03
2023-03-04T23:32:46.880Z,57.88
2023-03-04T23:35:15.949Z,58.23
2023-03-04T23:37:42.785Z,58.57
2023-03-04T23:40:13.332Z,58.81
2023-03-04T23:42:42.555Z,58.94
2023-03-04T23:45:09.911Z,59.49
2023-03-04T23:47:36.657Z,59.34
2023-03-04T23:50:04.016Z,59.59
2023-03-04T23:52:31.216Z,59.51
2023-03-04T23:55:00.476Z,59.59
2023-03-04T23:57:27.308Z,59.71
2023-03-04T23:59:56.639Z,59.73
